Detall de PIREP

Printer-friendly versionPDF version

[2015/12/26 15:27:00]
Flight IATA:CT1004
Pilot Number:012
Company ICAO:CAT
Aircraft Type:C750/F
PAX:4
Departing Airport: LPPR
Destination Airport: LERS
Alternate Airport:LEDA
Online: VATSIM
Route:DCT PESUL DCT RIVRO DCT BARDI UM191 DIPOL UN870 SEROX DCT
Flight Level:F320
No Slew and time accel
No pause
Crash detect
Detect pilot in Cockpit between each 30 and 45 minutes
15:27 Zero fuel Weight: 22815 Lbs, Fuel Weight: 5873 Lbs
15:27 VATSIM:LPPR 261500Z 18009KT CAVOK 18/10 Q1026
15:27 VATSIM:LERS 261500Z 21005KT 170V240 CAVOK 15/11 Q1032
15:27 X-MAS CHARTER
15:35 Parking Brakes off
15:38 Take-off
15:38 Take off Weight: 28610 Lbs
15:38 Wind: 183º @ 009 Knots Heading: 168º
15:38 POS N41º 14´ 14´´ W008º 40´ 42´´
15:38 Gear Up: 154 Knots
15:38 Flaps:3 at 155 Knots
15:38 Flaps:2 at 178 Knots
15:38 Flaps:0 at 175 Knots
15:46 TOC
15:46 Fuel Weight: 5383 Lb
15:53 Wind:227º@036 Knots Heading: 099º Ground Speed: 509 Knots Altitude 32473 ft
16:08 Wind:260º@031 Knots Heading: 067º Ground Speed: 526 Knots Altitude 32526 ft
16:23 Wind:299º@030 Knots Heading: 074º Ground Speed: 519 Knots Altitude 32562 ft
16:24 TOD
16:24 Fuel Weight: 4245 Lb
16:38 Wind:212º@014 Knots Heading: 109º Ground Speed: 240 Knots Altitude 7545 ft
16:40 Flaps:2 at 236 Knots
16:41 Flaps:3 at 224 Knots
16:42 Flaps:4 at 197 Knots
16:42 Gear Down: 199 Knots
16:42 Flaps:5 at 173 Knots
16:45 TouchDown:Rate -154 ft/min Speed: 116 Knots
16:45 VATSIM:LERS 261630Z VRB02KT 9000 NSC 12/12 Q1032
16:45 Land
16:45 Wind:359º@002 Knots
16:45 Heading: 249º
16:45 Flight Duration: 01:07
16:45 Landing Weight: 26823 Lbs
16:45 POS N41º 08´ 49´´ E001º 09´ 55´´
16:47 Parking brakes on
16:47 Block to Block Duration: 01:12
16:47 Final Fuel: 3992 Lbls
16:47 Spent Fuel: 1880 Lbls
16:47 Flight Length: 484 NM
16:47 TOD Land Length: 110 NM

Exportar CSV

Powered by Drupal - Modified by Danger4k